sensor_id;sensor_type;location;lat;lon;timestamp;temperature;humidity
56753;DHT22;42627;42.646;23.642;2022-08-04T00:01:07;17.00;95.20
56753;DHT22;42627;42.646;23.642;2022-08-04T00:05:33;16.90;96.30
56753;DHT22;42627;42.646;23.642;2022-08-04T00:07:41;16.90;96.40
56753;DHT22;42627;42.646;23.642;2022-08-04T00:10:01;16.90;96.40
56753;DHT22;42627;42.646;23.642;2022-08-04T00:12:03;16.80;96.10
56753;DHT22;42627;42.646;23.642;2022-08-04T00:14:13;16.80;96.20
56753;DHT22;42627;42.646;23.642;2022-08-04T00:16:21;16.80;96.30
56753;DHT22;42627;42.646;23.642;2022-08-04T00:18:55;16.80;96.00
56753;DHT22;42627;42.646;23.642;2022-08-04T00:21:15;16.70;96.70
56753;DHT22;42627;42.646;23.642;2022-08-04T00:23:34;16.80;96.10
56753;DHT22;42627;42.646;23.642;2022-08-04T00:25:39;16.70;95.70
56753;DHT22;42627;42.646;23.642;2022-08-04T00:27:40;16.70;96.30
56753;DHT22;42627;42.646;23.642;2022-08-04T00:29:41;16.60;96.90
56753;DHT22;42627;42.646;23.642;2022-08-04T00:31:42;16.50;97.30
56753;DHT22;42627;42.646;23.642;2022-08-04T00:33:46;16.50;97.50
56753;DHT22;42627;42.646;23.642;2022-08-04T00:35:48;16.50;97.70
56753;DHT22;42627;42.646;23.642;2022-08-04T00:37:54;16.50;97.30
56753;DHT22;42627;42.646;23.642;2022-08-04T00:39:56;16.50;96.90
56753;DHT22;42627;42.646;23.642;2022-08-04T01:01:46;16.60;95.90
56753;DHT22;42627;42.646;23.642;2022-08-04T01:06:08;16.50;95.40
56753;DHT22;42627;42.646;23.642;2022-08-04T01:08:26;16.50;95.50
56753;DHT22;42627;42.646;23.642;2022-08-04T01:15:20;16.30;95.80
56753;DHT22;42627;42.646;23.642;2022-08-04T01:20:24;16.30;96.30
56753;DHT22;42627;42.646;23.642;2022-08-04T01:23:02;16.30;96.10
56753;DHT22;42627;42.646;23.642;2022-08-04T01:25:39;16.40;95.80
56753;DHT22;42627;42.646;23.642;2022-08-04T01:29:55;15.70;99.10
56753;DHT22;42627;42.646;23.642;2022-08-04T01:32:04;15.70;99.80
56753;DHT22;42627;42.646;23.642;2022-08-04T01:34:11;15.70;99.90
56753;DHT22;42627;42.646;23.642;2022-08-04T01:36:11;15.60;99.90
56753;DHT22;42627;42.646;23.642;2022-08-04T01:38:23;15.60;99.90
56753;DHT22;42627;42.646;23.642;2022-08-04T01:40:26;15.60;99.90
56753;DHT22;42627;42.646;23.642;2022-08-04T01:42:28;15.60;99.90
56753;DHT22;42627;42.646;23.642;2022-08-04T01:44:30;15.60;99.90
56753;DHT22;42627;42.646;23.642;2022-08-04T01:46:32;15.60;99.90
56753;DHT22;42627;42.646;23.642;2022-08-04T01:48:47;15.50;99.90
56753;DHT22;42627;42.646;23.642;2022-08-04T01:51:05;15.40;99.90
56753;DHT22;42627;42.646;23.642;2022-08-04T01:53:31;15.30;99.90
56753;DHT22;42627;42.646;23.642;2022-08-04T01:55:33;15.20;99.90
56753;DHT22;42627;42.646;23.642;2022-08-04T01:57:51;15.20;99.90
56753;DHT22;42627;42.646;23.642;2022-08-04T01:59:52;15.30;99.90
56753;DHT22;42627;42.646;23.642;2022-08-04T02:01:53;15.40;99.90
56753;DHT22;42627;42.646;23.642;2022-08-04T02:03:54;15.50;99.90
56753;DHT22;42627;42.646;23.642;2022-08-04T02:06:15;15.50;99.90
56753;DHT22;42627;42.646;23.642;2022-08-04T02:11:14;15.70;99.20
56753;DHT22;42627;42.646;23.642;2022-08-04T02:13:36;15.50;99.90
56753;DHT22;42627;42.646;23.642;2022-08-04T02:21:11;15.60;99.90
56753;DHT22;42627;42.646;23.642;2022-08-04T02:23:50;15.60;99.90
56753;DHT22;42627;42.646;23.642;2022-08-04T02:25:52;15.40;99.90
56753;DHT22;42627;42.646;23.642;2022-08-04T02:28:52;15.40;99.90
56753;DHT22;42627;42.646;23.642;2022-08-04T02:30:30;15.30;99.90
56753;DHT22;42627;42.646;23.642;2022-08-04T02:32:35;15.30;99.90
56753;DHT22;42627;42.646;23.642;2022-08-04T02:35:03;15.30;99.90
56753;DHT22;42627;42.646;23.642;2022-08-04T02:37:06;15.20;99.90
56753;DHT22;42627;42.646;23.642;2022-08-04T02:39:10;15.10;99.90
56753;DHT22;42627;42.646;23.642;2022-08-04T02:41:11;15.00;99.90
56753;DHT22;42627;42.646;23.642;2022-08-04T02:43:15;15.00;99.90
56753;DHT22;42627;42.646;23.642;2022-08-04T02:45:21;15.00;99.90
56753;DHT22;42627;42.646;23.642;2022-08-04T02:47:31;15.10;99.90
56753;DHT22;42627;42.646;23.642;2022-08-04T02:49:52;15.10;99.90
56753;DHT22;42627;42.646;23.642;2022-08-04T02:51:58;15.10;99.90
56753;DHT22;42627;42.646;23.642;2022-08-04T02:54:02;15.10;99.90
56753;DHT22;42627;42.646;23.642;2022-08-04T02:56:06;15.20;99.90
56753;DHT22;42627;42.646;23.642;2022-08-04T02:58:08;15.20;99.90
56753;DHT22;42627;42.646;23.642;2022-08-04T03:00:11;15.20;99.90
56753;DHT22;42627;42.646;23.642;2022-08-04T03:02:18;15.10;99.90
56753;DHT22;42627;42.646;23.642;2022-08-04T03:04:37;15.10;99.90
56753;DHT22;42627;42.646;23.642;2022-08-04T03:31:22;15.10;99.90
56753;DHT22;42627;42.646;23.642;2022-08-04T03:45:54;15.30;99.90
56753;DHT22;42627;42.646;23.642;2022-08-04T04:23:22;15.20;99.90
56753;DHT22;42627;42.646;23.642;2022-08-04T04:27:42;15.20;99.90
56753;DHT22;42627;42.646;23.642;2022-08-04T04:30:06;15.20;99.90
56753;DHT22;42627;42.646;23.642;2022-08-04T04:40:07;15.30;99.90
56753;DHT22;42627;42.646;23.642;2022-08-04T04:47:45;15.40;99.90
56753;DHT22;42627;42.646;23.642;2022-08-04T04:50:11;15.50;99.90
56753;DHT22;42627;42.646;23.642;2022-08-04T04:55:01;15.50;99.90
56753;DHT22;42627;42.646;23.642;2022-08-04T04:57:17;15.50;99.90
56753;DHT22;42627;42.646;23.642;2022-08-04T04:59:23;15.60;99.90
56753;DHT22;42627;42.646;23.642;2022-08-04T05:07:20;15.90;99.90
56753;DHT22;42627;42.646;23.642;2022-08-04T05:16:33;16.50;99.90
56753;DHT22;42627;42.646;23.642;2022-08-04T05:18:37;16.60;99.90
56753;DHT22;42627;42.646;23.642;2022-08-04T05:23:01;16.80;99.90
56753;DHT22;42627;42.646;23.642;2022-08-04T05:27:16;17.00;99.90
56753;DHT22;42627;42.646;23.642;2022-08-04T05:29:33;17.10;99.90
56753;DHT22;42627;42.646;23.642;2022-08-04T05:31:40;17.30;99.90
56753;DHT22;42627;42.646;23.642;2022-08-04T05:33:53;17.50;99.90
56753;DHT22;42627;42.646;23.642;2022-08-04T05:41:42;17.80;99.90
56753;DHT22;42627;42.646;23.642;2022-08-04T05:43:44;18.00;99.90
56753;DHT22;42627;42.646;23.642;2022-08-04T05:45:46;18.10;99.90
56753;DHT22;42627;42.646;23.642;2022-08-04T05:47:50;18.20;99.90
56753;DHT22;42627;42.646;23.642;2022-08-04T05:50:02;18.30;99.90
56753;DHT22;42627;42.646;23.642;2022-08-04T05:52:04;18.40;99.90
56753;DHT22;42627;42.646;23.642;2022-08-04T05:54:06;18.50;99.90
56753;DHT22;42627;42.646;23.642;2022-08-04T05:56:07;18.60;99.90
56753;DHT22;42627;42.646;23.642;2022-08-04T05:58:08;18.60;99.90
56753;DHT22;42627;42.646;23.642;2022-08-04T06:00:10;18.70;99.90
56753;DHT22;42627;42.646;23.642;2022-08-04T06:02:13;18.80;99.90
56753;DHT22;42627;42.646;23.642;2022-08-04T06:04:16;18.80;99.90
56753;DHT22;42627;42.646;23.642;2022-08-04T06:06:24;18.90;99.90
56753;DHT22;42627;42.646;23.642;2022-08-04T06:08:26;19.00;99.90
56753;DHT22;42627;42.646;23.642;2022-08-04T06:10:27;19.10;99.30
56753;DHT22;42627;42.646;23.642;2022-08-04T06:12:52;19.10;99.10
56753;DHT22;42627;42.646;23.642;2022-08-04T06:14:56;19.20;99.40
56753;DHT22;42627;42.646;23.642;2022-08-04T06:17:22;19.30;99.00
56753;DHT22;42627;42.646;23.642;2022-08-04T06:19:36;19.30;98.60
56753;DHT22;42627;42.646;23.642;2022-08-04T06:22:02;19.40;97.80
56753;DHT22;42627;42.646;23.642;2022-08-04T06:24:06;19.50;97.70
56753;DHT22;42627;42.646;23.642;2022-08-04T06:26:10;19.60;97.40
56753;DHT22;42627;42.646;23.642;2022-08-04T06:28:14;19.70;96.20
56753;DHT22;42627;42.646;23.642;2022-08-04T06:30:16;19.70;95.30
56753;DHT22;42627;42.646;23.642;2022-08-04T06:32:19;19.90;95.50
56753;DHT22;42627;42.646;23.642;2022-08-04T06:36:30;19.80;95.30
56753;DHT22;42627;42.646;23.642;2022-08-04T06:38:33;20.10;94.80
56753;DHT22;42627;42.646;23.642;2022-08-04T06:40:35;20.20;94.50
56753;DHT22;42627;42.646;23.642;2022-08-04T06:42:36;20.30;94.70
56753;DHT22;42627;42.646;23.642;2022-08-04T06:44:39;20.40;93.90
56753;DHT22;42627;42.646;23.642;2022-08-04T06:46:59;20.50;93.40
56753;DHT22;42627;42.646;23.642;2022-08-04T06:49:13;20.60;93.00
56753;DHT22;42627;42.646;23.642;2022-08-04T06:51:38;20.70;92.80
56753;DHT22;42627;42.646;23.642;2022-08-04T06:53:50;20.80;92.00
56753;DHT22;42627;42.646;23.642;2022-08-04T06:55:52;21.00;93.00
56753;DHT22;42627;42.646;23.642;2022-08-04T06:57:54;21.00;92.60
56753;DHT22;42627;42.646;23.642;2022-08-04T07:00:07;21.20;90.90
56753;DHT22;42627;42.646;23.642;2022-08-04T07:02:14;21.20;90.80
56753;DHT22;42627;42.646;23.642;2022-08-04T07:04:16;21.20;90.50
56753;DHT22;42627;42.646;23.642;2022-08-04T07:06:26;21.30;90.70
56753;DHT22;42627;42.646;23.642;2022-08-04T07:12:39;21.50;90.00
56753;DHT22;42627;42.646;23.642;2022-08-04T07:17:27;21.70;86.80
56753;DHT22;42627;42.646;23.642;2022-08-04T07:19:41;21.90;84.30
56753;DHT22;42627;42.646;23.642;2022-08-04T07:21:49;21.90;81.70
56753;DHT22;42627;42.646;23.642;2022-08-04T07:25:55;21.90;81.50
56753;DHT22;42627;42.646;23.642;2022-08-04T07:27:57;21.80;81.40
56753;DHT22;42627;42.646;23.642;2022-08-04T07:29:57;21.80;83.00
56753;DHT22;42627;42.646;23.642;2022-08-04T07:31:59;21.90;82.40
56753;DHT22;42627;42.646;23.642;2022-08-04T07:34:00;21.90;80.60
56753;DHT22;42627;42.646;23.642;2022-08-04T07:36:01;22.00;81.10
56753;DHT22;42627;42.646;23.642;2022-08-04T07:38:02;22.10;80.60
56753;DHT22;42627;42.646;23.642;2022-08-04T07:40:04;22.10;79.60
56753;DHT22;42627;42.646;23.642;2022-08-04T07:42:05;22.10;80.40
56753;DHT22;42627;42.646;23.642;2022-08-04T07:44:07;22.10;78.30
56753;DHT22;42627;42.646;23.642;2022-08-04T07:58:09;22.60;77.80
56753;DHT22;42627;42.646;23.642;2022-08-04T08:00:16;22.70;78.30
56753;DHT22;42627;42.646;23.642;2022-08-04T08:02:19;22.80;77.40
56753;DHT22;42627;42.646;23.642;2022-08-04T08:06:33;23.00;76.00
56753;DHT22;42627;42.646;23.642;2022-08-04T08:10:39;23.00;76.00
56753;DHT22;42627;42.646;23.642;2022-08-04T08:12:45;23.20;75.60
56753;DHT22;42627;42.646;23.642;2022-08-04T08:14:46;23.40;75.30
56753;DHT22;42627;42.646;23.642;2022-08-04T08:16:47;23.50;73.20
56753;DHT22;42627;42.646;23.642;2022-08-04T08:18:49;23.60;70.60
56753;DHT22;42627;42.646;23.642;2022-08-04T08:21:09;23.70;70.70
56753;DHT22;42627;42.646;23.642;2022-08-04T08:23:34;23.70;72.40
56753;DHT22;42627;42.646;23.642;2022-08-04T08:25:50;23.70;69.30
56753;DHT22;42627;42.646;23.642;2022-08-04T08:27:51;23.70;69.80
56753;DHT22;42627;42.646;23.642;2022-08-04T08:29:52;23.80;70.10
56753;DHT22;42627;42.646;23.642;2022-08-04T08:31:53;23.90;70.50
56753;DHT22;42627;42.646;23.642;2022-08-04T08:33:55;23.90;70.00
56753;DHT22;42627;42.646;23.642;2022-08-04T08:36:07;23.90;71.40
56753;DHT22;42627;42.646;23.642;2022-08-04T08:38:10;23.90;71.90
56753;DHT22;42627;42.646;23.642;2022-08-04T08:44:33;24.10;71.90
56753;DHT22;42627;42.646;23.642;2022-08-04T09:01:04;24.20;69.00
56753;DHT22;42627;42.646;23.642;2022-08-04T09:11:14;24.70;67.20
56753;DHT22;42627;42.646;23.642;2022-08-04T09:15:34;24.70;68.40
56753;DHT22;42627;42.646;23.642;2022-08-04T09:17:40;24.70;69.40
56753;DHT22;42627;42.646;23.642;2022-08-04T09:19:48;24.70;69.30
56753;DHT22;42627;42.646;23.642;2022-08-04T09:24:19;24.70;68.50
56753;DHT22;42627;42.646;23.642;2022-08-04T09:28:49;24.60;69.50
56753;DHT22;42627;42.646;23.642;2022-08-04T09:31:14;24.60;69.60
56753;DHT22;42627;42.646;23.642;2022-08-04T09:33:23;24.50;68.40
56753;DHT22;42627;42.646;23.642;2022-08-04T09:43:28;24.40;66.40
56753;DHT22;42627;42.646;23.642;2022-08-04T09:48:07;24.40;66.60
56753;DHT22;42627;42.646;23.642;2022-08-04T09:55:17;24.40;66.60
56753;DHT22;42627;42.646;23.642;2022-08-04T09:59:28;24.50;65.80
56753;DHT22;42627;42.646;23.642;2022-08-04T10:01:34;24.50;66.20
56753;DHT22;42627;42.646;23.642;2022-08-04T10:03:50;24.60;66.20
56753;DHT22;42627;42.646;23.642;2022-08-04T10:14:04;25.00;62.70
56753;DHT22;42627;42.646;23.642;2022-08-04T10:18:27;25.30;63.00
56753;DHT22;42627;42.646;23.642;2022-08-04T10:36:05;25.50;63.60
56753;DHT22;42627;42.646;23.642;2022-08-04T10:38:41;26.60;57.60
56753;DHT22;42627;42.646;23.642;2022-08-04T10:46:43;26.80;52.20
56753;DHT22;42627;42.646;23.642;2022-08-04T10:49:04;26.90;52.60
56753;DHT22;42627;42.646;23.642;2022-08-04T11:31:10;26.90;51.60
56753;DHT22;42627;42.646;23.642;2022-08-04T11:33:31;27.80;46.30
56753;DHT22;42627;42.646;23.642;2022-08-04T11:40:27;27.40;47.00
56753;DHT22;42627;42.646;23.642;2022-08-04T14:25:15;27.40;47.40
56753;DHT22;42627;42.646;23.642;2022-08-04T15:41:04;28.20;43.10
56753;DHT22;42627;42.646;23.642;2022-08-04T15:49:32;28.00;43.20
56753;DHT22;42627;42.646;23.642;2022-08-04T16:41:03;27.80;45.10
56753;DHT22;42627;42.646;23.642;2022-08-04T17:19:28;27.20;46.10
56753;DHT22;42627;42.646;23.642;2022-08-04T17:23:43;26.50;47.20
56753;DHT22;42627;42.646;23.642;2022-08-04T17:25:59;26.50;47.40
56753;DHT22;42627;42.646;23.642;2022-08-04T17:28:03;26.50;47.20
56753;DHT22;42627;42.646;23.642;2022-08-04T17:30:05;26.50;47.30
56753;DHT22;42627;42.646;23.642;2022-08-04T17:48:40;26.50;47.40
56753;DHT22;42627;42.646;23.642;2022-08-04T17:52:41;26.20;51.50
56753;DHT22;42627;42.646;23.642;2022-08-04T17:54:57;25.90;53.10
56753;DHT22;42627;42.646;23.642;2022-08-04T17:57:21;25.80;52.50
56753;DHT22;42627;42.646;23.642;2022-08-04T17:59:57;25.70;54.00
56753;DHT22;42627;42.646;23.642;2022-08-04T18:01:59;25.40;54.00
56753;DHT22;42627;42.646;23.642;2022-08-04T18:04:31;25.30;53.30
56753;DHT22;42627;42.646;23.642;2022-08-04T18:09:38;25.10;54.00
56753;DHT22;42627;42.646;23.642;2022-08-04T18:12:09;24.90;52.70
56753;DHT22;42627;42.646;23.642;2022-08-04T18:14:10;24.70;52.60
56753;DHT22;42627;42.646;23.642;2022-08-04T18:16:10;24.60;52.90
56753;DHT22;42627;42.646;23.642;2022-08-04T18:18:18;24.60;53.40
56753;DHT22;42627;42.646;23.642;2022-08-04T18:20:23;24.60;53.60
56753;DHT22;42627;42.646;23.642;2022-08-04T18:22:24;24.50;53.90
56753;DHT22;42627;42.646;23.642;2022-08-04T18:24:27;24.40;54.20
56753;DHT22;42627;42.646;23.642;2022-08-04T18:26:38;24.40;54.20
56753;DHT22;42627;42.646;23.642;2022-08-04T18:28:40;24.40;54.60
56753;DHT22;42627;42.646;23.642;2022-08-04T18:30:40;24.40;56.10
56753;DHT22;42627;42.646;23.642;2022-08-04T18:32:41;24.40;56.70
56753;DHT22;42627;42.646;23.642;2022-08-04T18:34:42;24.10;55.80
56753;DHT22;42627;42.646;23.642;2022-08-04T18:37:04;24.10;55.90
56753;DHT22;42627;42.646;23.642;2022-08-04T18:39:32;24.10;56.50
56753;DHT22;42627;42.646;23.642;2022-08-04T18:41:36;24.00;56.80
56753;DHT22;42627;42.646;23.642;2022-08-04T18:43:37;23.90;57.30
56753;DHT22;42627;42.646;23.642;2022-08-04T18:45:37;23.80;57.20
56753;DHT22;42627;42.646;23.642;2022-08-04T18:47:39;23.70;57.20
56753;DHT22;42627;42.646;23.642;2022-08-04T18:49:40;23.60;57.70
56753;DHT22;42627;42.646;23.642;2022-08-04T18:51:40;23.60;58.30
56753;DHT22;42627;42.646;23.642;2022-08-04T18:53:41;23.50;58.60
56753;DHT22;42627;42.646;23.642;2022-08-04T18:55:48;23.40;58.70
56753;DHT22;42627;42.646;23.642;2022-08-04T18:57:48;23.40;59.60
56753;DHT22;42627;42.646;23.642;2022-08-04T18:59:50;23.40;59.60
56753;DHT22;42627;42.646;23.642;2022-08-04T19:01:50;23.40;59.70
56753;DHT22;42627;42.646;23.642;2022-08-04T19:03:51;23.40;59.60
56753;DHT22;42627;42.646;23.642;2022-08-04T19:06:17;23.50;59.60
56753;DHT22;42627;42.646;23.642;2022-08-04T19:11:03;23.50;59.30
56753;DHT22;42627;42.646;23.642;2022-08-04T19:13:04;23.20;60.10
56753;DHT22;42627;42.646;23.642;2022-08-04T19:15:05;23.00;60.50
56753;DHT22;42627;42.646;23.642;2022-08-04T19:17:06;23.10;60.60
56753;DHT22;42627;42.646;23.642;2022-08-04T19:21:08;23.00;60.60
56753;DHT22;42627;42.646;23.642;2022-08-04T19:23:08;22.80;61.70
56753;DHT22;42627;42.646;23.642;2022-08-04T19:27:19;22.70;62.00
56753;DHT22;42627;42.646;23.642;2022-08-04T19:29:20;22.60;61.70
56753;DHT22;42627;42.646;23.642;2022-08-04T19:31:21;22.70;61.30
56753;DHT22;42627;42.646;23.642;2022-08-04T19:35:53;22.60;61.50
56753;DHT22;42627;42.646;23.642;2022-08-04T19:38:31;22.30;61.50
56753;DHT22;42627;42.646;23.642;2022-08-04T19:40:41;22.20;61.90
56753;DHT22;42627;42.646;23.642;2022-08-04T19:42:42;22.20;62.10
56753;DHT22;42627;42.646;23.642;2022-08-04T19:48:45;22.10;62.30
56753;DHT22;42627;42.646;23.642;2022-08-04T19:50:46;21.80;62.70
56753;DHT22;42627;42.646;23.642;2022-08-04T19:52:47;21.80;63.10
56753;DHT22;42627;42.646;23.642;2022-08-04T19:56:58;21.70;63.40
56753;DHT22;42627;42.646;23.642;2022-08-04T19:58:59;21.60;64.60
56753;DHT22;42627;42.646;23.642;2022-08-04T20:01:00;21.50;64.40
56753;DHT22;42627;42.646;23.642;2022-08-04T20:03:01;21.40;64.90
56753;DHT22;42627;42.646;23.642;2022-08-04T20:07:03;21.40;65.10
56753;DHT22;42627;42.646;23.642;2022-08-04T20:09:16;21.20;65.40
56753;DHT22;42627;42.646;23.642;2022-08-04T20:11:38;21.10;65.20
56753;DHT22;42627;42.646;23.642;2022-08-04T20:14:04;21.20;65.20
56753;DHT22;42627;42.646;23.642;2022-08-04T20:18:06;21.30;65.00
56753;DHT22;42627;42.646;23.642;2022-08-04T20:20:08;21.50;65.50
56753;DHT22;42627;42.646;23.642;2022-08-04T20:22:08;21.60;65.20
56753;DHT22;42627;42.646;23.642;2022-08-04T20:24:09;21.50;65.60
56753;DHT22;42627;42.646;23.642;2022-08-04T20:26:10;21.40;65.20
56753;DHT22;42627;42.646;23.642;2022-08-04T20:28:13;21.40;65.30
56753;DHT22;42627;42.646;23.642;2022-08-04T20:30:13;21.40;65.30
56753;DHT22;42627;42.646;23.642;2022-08-04T20:32:18;21.50;65.00
56753;DHT22;42627;42.646;23.642;2022-08-04T20:34:19;21.40;64.90
56753;DHT22;42627;42.646;23.642;2022-08-04T20:36:20;21.30;65.00
56753;DHT22;42627;42.646;23.642;2022-08-04T20:38:21;21.20;64.90
56753;DHT22;42627;42.646;23.642;2022-08-04T20:40:37;21.20;65.00
56753;DHT22;42627;42.646;23.642;2022-08-04T20:42:49;21.10;65.20
56753;DHT22;42627;42.646;23.642;2022-08-04T20:44:58;21.00;65.60
56753;DHT22;42627;42.646;23.642;2022-08-04T20:46:59;20.90;65.90
56753;DHT22;42627;42.646;23.642;2022-08-04T20:49:00;20.90;66.20
56753;DHT22;42627;42.646;23.642;2022-08-04T20:51:00;20.80;66.20
56753;DHT22;42627;42.646;23.642;2022-08-04T20:53:01;20.80;66.30
56753;DHT22;42627;42.646;23.642;2022-08-04T20:55:03;20.80;66.30
56753;DHT22;42627;42.646;23.642;2022-08-04T20:57:04;20.80;66.30
56753;DHT22;42627;42.646;23.642;2022-08-04T20:59:05;20.80;66.20
56753;DHT22;42627;42.646;23.642;2022-08-04T21:01:06;20.90;66.20
56753;DHT22;42627;42.646;23.642;2022-08-04T21:03:07;20.80;66.40
56753;DHT22;42627;42.646;23.642;2022-08-04T21:05:08;20.70;66.50
56753;DHT22;42627;42.646;23.642;2022-08-04T21:07:09;20.80;66.60
56753;DHT22;42627;42.646;23.642;2022-08-04T21:09:29;20.80;66.70
56753;DHT22;42627;42.646;23.642;2022-08-04T21:11:54;20.80;67.00
56753;DHT22;42627;42.646;23.642;2022-08-04T21:14:13;20.80;67.00
56753;DHT22;42627;42.646;23.642;2022-08-04T21:16:14;20.70;66.90
56753;DHT22;42627;42.646;23.642;2022-08-04T21:18:14;20.70;66.90
56753;DHT22;42627;42.646;23.642;2022-08-04T21:20:15;20.70;66.80
56753;DHT22;42627;42.646;23.642;2022-08-04T21:22:20;20.60;67.10
56753;DHT22;42627;42.646;23.642;2022-08-04T21:24:21;20.50;67.10
56753;DHT22;42627;42.646;23.642;2022-08-04T21:26:23;20.40;66.80
56753;DHT22;42627;42.646;23.642;2022-08-04T21:28:39;20.30;67.10
56753;DHT22;42627;42.646;23.642;2022-08-04T21:30:39;20.30;67.30
56753;DHT22;42627;42.646;23.642;2022-08-04T21:32:40;20.20;67.40
56753;DHT22;42627;42.646;23.642;2022-08-04T21:34:41;20.10;67.50
56753;DHT22;42627;42.646;23.642;2022-08-04T21:36:43;20.10;67.80
56753;DHT22;42627;42.646;23.642;2022-08-04T21:41:47;19.80;69.60
56753;DHT22;42627;42.646;23.642;2022-08-04T21:43:56;19.70;69.70
56753;DHT22;42627;42.646;23.642;2022-08-04T21:45:57;19.70;70.00
56753;DHT22;42627;42.646;23.642;2022-08-04T21:47:57;19.50;70.90
56753;DHT22;42627;42.646;23.642;2022-08-04T21:49:58;19.40;71.60
56753;DHT22;42627;42.646;23.642;2022-08-04T21:51:58;19.20;72.10
56753;DHT22;42627;42.646;23.642;2022-08-04T21:54:00;19.10;72.80
56753;DHT22;42627;42.646;23.642;2022-08-04T21:56:01;19.00;73.00
56753;DHT22;42627;42.646;23.642;2022-08-04T22:00:12;19.00;73.50
56753;DHT22;42627;42.646;23.642;2022-08-04T22:02:13;19.00;73.80
56753;DHT22;42627;42.646;23.642;2022-08-04T22:04:13;19.00;74.40
56753;DHT22;42627;42.646;23.642;2022-08-04T22:06:15;18.90;74.60
56753;DHT22;42627;42.646;23.642;2022-08-04T22:08:15;18.90;74.90
56753;DHT22;42627;42.646;23.642;2022-08-04T22:10:17;18.90;75.20
56753;DHT22;42627;42.646;23.642;2022-08-04T22:12:18;18.90;75.50
56753;DHT22;42627;42.646;23.642;2022-08-04T22:14:43;18.90;75.70
56753;DHT22;42627;42.646;23.642;2022-08-04T22:19:25;18.90;75.70
56753;DHT22;42627;42.646;23.642;2022-08-04T22:21:27;18.80;75.60
56753;DHT22;42627;42.646;23.642;2022-08-04T22:23:27;18.90;75.50
56753;DHT22;42627;42.646;23.642;2022-08-04T22:25:30;18.90;75.70
56753;DHT22;42627;42.646;23.642;2022-08-04T22:27:30;18.90;75.30
56753;DHT22;42627;42.646;23.642;2022-08-04T22:29:49;18.90;75.50
56753;DHT22;42627;42.646;23.642;2022-08-04T22:31:50;19.00;75.30
56753;DHT22;42627;42.646;23.642;2022-08-04T22:33:53;19.00;75.30
56753;DHT22;42627;42.646;23.642;2022-08-04T22:35:54;19.10;75.40
56753;DHT22;42627;42.646;23.642;2022-08-04T22:37:55;19.10;75.20
56753;DHT22;42627;42.646;23.642;2022-08-04T22:39:58;19.00;75.00
56753;DHT22;42627;42.646;23.642;2022-08-04T22:41:59;18.90;75.10
56753;DHT22;42627;42.646;23.642;2022-08-04T22:44:21;18.90;75.20
56753;DHT22;42627;42.646;23.642;2022-08-04T22:46:55;18.70;76.10
56753;DHT22;42627;42.646;23.642;2022-08-04T22:48:59;18.70;76.20
56753;DHT22;42627;42.646;23.642;2022-08-04T22:51:00;18.70;76.20
56753;DHT22;42627;42.646;23.642;2022-08-04T22:53:01;18.80;75.80
56753;DHT22;42627;42.646;23.642;2022-08-04T22:55:01;18.70;75.80
56753;DHT22;42627;42.646;23.642;2022-08-04T22:57:02;18.70;76.00
56753;DHT22;42627;42.646;23.642;2022-08-04T22:59:03;18.70;75.90
56753;DHT22;42627;42.646;23.642;2022-08-04T23:01:03;18.60;76.10
56753;DHT22;42627;42.646;23.642;2022-08-04T23:03:09;18.60;76.30
56753;DHT22;42627;42.646;23.642;2022-08-04T23:05:10;18.50;76.70
56753;DHT22;42627;42.646;23.642;2022-08-04T23:07:11;18.50;76.70
56753;DHT22;42627;42.646;23.642;2022-08-04T23:09:11;18.50;76.80
56753;DHT22;42627;42.646;23.642;2022-08-04T23:11:12;18.50;76.90
56753;DHT22;42627;42.646;23.642;2022-08-04T23:13:35;18.50;76.70
56753;DHT22;42627;42.646;23.642;2022-08-04T23:15:48;18.40;76.60
56753;DHT22;42627;42.646;23.642;2022-08-04T23:18:04;18.30;76.60
56753;DHT22;42627;42.646;23.642;2022-08-04T23:20:05;18.40;76.60
56753;DHT22;42627;42.646;23.642;2022-08-04T23:22:05;18.40;76.40
56753;DHT22;42627;42.646;23.642;2022-08-04T23:24:06;18.40;76.40
56753;DHT22;42627;42.646;23.642;2022-08-04T23:26:13;18.30;76.60
56753;DHT22;42627;42.646;23.642;2022-08-04T23:28:14;18.30;76.60
56753;DHT22;42627;42.646;23.642;2022-08-04T23:30:15;18.20;76.70
56753;DHT22;42627;42.646;23.642;2022-08-04T23:32:16;18.20;77.40
56753;DHT22;42627;42.646;23.642;2022-08-04T23:34:17;18.20;77.10
56753;DHT22;42627;42.646;23.642;2022-08-04T23:36:21;18.20;77.10
56753;DHT22;42627;42.646;23.642;2022-08-04T23:38:22;18.20;77.00
56753;DHT22;42627;42.646;23.642;2022-08-04T23:40:22;18.10;77.30
56753;DHT22;42627;42.646;23.642;2022-08-04T23:42:28;18.00;77.50
56753;DHT22;42627;42.646;23.642;2022-08-04T23:45:00;17.90;78.40
56753;DHT22;42627;42.646;23.642;2022-08-04T23:47:20;17.80;79.00
56753;DHT22;42627;42.646;23.642;2022-08-04T23:49:21;17.70;79.30
56753;DHT22;42627;42.646;23.642;2022-08-04T23:51:21;17.70;79.30
56753;DHT22;42627;42.646;23.642;2022-08-04T23:53:22;17.80;78.10
56753;DHT22;42627;42.646;23.642;2022-08-04T23:55:23;17.80;78.30
56753;DHT22;42627;42.646;23.642;2022-08-04T23:57:24;17.80;78.50
56753;DHT22;42627;42.646;23.642;2022-08-04T23:59:25;17.80;77.80
